Aérodrome :
LOGIN :

S'inscrire | Disclaimer

   EN    FR    IT 

 










Légende :    VFR   VFR Marginal   IFR   IFR Intensif   IFR Très Intensif
Visi : 
Plafond : 
>= 8 km
>= 3000ft
5 à 8 km
1000 à 3000 ft
1500m à 5 km
500 à 1000 ft
800 à 1500m
200 à 500 ft
< 800m
< 200 ft
Symboles :   Orages  Brouillard  Fortes neiges  Fortes précipitations  Vent > 20 kt
SIGMETs :   Divers  Orages  Givrage  Turbulence  Onde Orograph.  Cendres Volcan.







- Altitude de l'aérodrome : 242 ft
- Code IATA : DUB


EIDW - Dublin

DERNIER METAR :
  • 292100Z 13012KT 9999 FEW020 SCT040 BKN060 10/06 Q1004 NOSIG

METARs EXPIRÉS :
  • 292030Z 14016KT 9999 FEW020 SCT040 BKN060 10/05 Q1004 NOSIG
  • 292000Z 13015KT 9999 FEW025 SCT070 BKN200 10/05 Q1004 NOSIG
  • 291930Z 13013KT 9999 FEW025 SCT070 BKN200 10/05 Q1005 NOSIG
  • 291900Z 14011KT 9999 FEW025 SCT035 BKN070 10/05 Q1005 NOSIG
  • 291830Z 13012KT 9999 FEW025 SCT035 BKN070 10/06 Q1005 NOSIG

TAF TAF EIDW
Valide du 29 à 18h jusqu'au 30 à 18h UTC


291700Z 2918/3018 15017G28KT 9999 SCT020 BKN040
BECMG 2918/2921 13017G27KT
BECMG 3001/3003 12020G33KT
BECMG 3011/3013 13017G27KT
BECMG 3013/3015 10010KT
TEMPO 3014/3018 5000 RA BKN010
Pas de NOTAMs connus pour ce terrain.



MET'MAP, la Météo Aéronautique d'un coup d'oeil ! - Copyright ORBIFLY Décembre 2007 - Disclaimer

ORBIFLY MET'MAP TEAM :

Programmation & Développement : Alexandra Zaïnal
Conception & Développement : Baudouin d'Aumeries
Co-Programmation & Développement : Marc-Olivier Méhu
Soutien technique & logistique : Manuel Goepfert

Contact : metmap@orbifly.com




SOURCES & CREDITS :

   NOAA